createdAt,value
2022-12-28T00:00:14.158Z,2.10
2022-12-28T00:01:14.865Z,2.40
2022-12-28T00:02:15.615Z,2.20
2022-12-28T00:03:16.303Z,2.30
2022-12-28T00:04:17.002Z,2.40
2022-12-28T00:05:17.639Z,2.00
2022-12-28T00:06:18.350Z,2.10
2022-12-28T00:07:19.056Z,1.90
2022-12-28T00:08:19.760Z,2.10
2022-12-28T00:09:20.477Z,2.30
2022-12-28T00:11:08.367Z,2.20
2022-12-28T00:11:28.277Z,2.30
2022-12-28T00:12:23.388Z,2.30
2022-12-28T00:13:23.096Z,2.20
2022-12-28T00:14:23.796Z,1.70
2022-12-28T00:15:24.513Z,2.10
2022-12-28T00:16:25.268Z,1.90
2022-12-28T00:17:25.925Z,2.00
2022-12-28T00:18:26.631Z,2.00
2022-12-28T00:19:27.395Z,1.90
2022-12-28T00:20:28.073Z,1.80
2022-12-28T00:21:28.821Z,1.90
2022-12-28T00:22:29.487Z,1.90
2022-12-28T00:23:30.193Z,1.90
2022-12-28T00:24:30.918Z,2.10
2022-12-28T00:25:32.051Z,1.80
2022-12-28T00:26:32.260Z,1.80
2022-12-28T00:27:32.963Z,2.20
2022-12-28T00:28:33.679Z,2.10
2022-12-28T00:29:34.373Z,1.90
2022-12-28T00:30:35.565Z,2.10
2022-12-28T00:31:35.778Z,2.50
2022-12-28T00:32:36.457Z,1.90
2022-12-28T00:33:37.159Z,2.00
2022-12-28T00:34:37.893Z,2.10
2022-12-28T00:35:39.069Z,2.30
2022-12-28T00:37:08.350Z,1.80
2022-12-28T00:37:40.874Z,2.00
2022-12-28T00:38:40.583Z,2.00
2022-12-28T00:39:41.323Z,2.10
2022-12-28T00:40:42.030Z,2.10
2022-12-28T00:41:42.721Z,2.00
2022-12-28T00:42:43.392Z,2.10
2022-12-28T00:43:44.096Z,2.10
2022-12-28T00:44:44.807Z,2.10
2022-12-28T00:45:45.539Z,2.00
2022-12-28T00:46:46.230Z,2.30
2022-12-28T00:47:46.937Z,2.00
2022-12-28T00:48:47.660Z,2.20
2022-12-28T00:49:48.400Z,2.20
2022-12-28T00:50:49.595Z,2.20
2022-12-28T00:51:49.773Z,2.00
2022-12-28T00:52:50.482Z,2.40
2022-12-28T00:53:51.188Z,2.30
2022-12-28T00:54:51.949Z,2.10
2022-12-28T00:55:53.046Z,2.40
2022-12-28T00:56:53.262Z,2.30
2022-12-28T00:57:53.961Z,2.30
2022-12-28T00:58:54.672Z,2.40
2022-12-28T00:59:55.389Z,2.00
2022-12-28T01:00:56.659Z,2.30
2022-12-28T01:01:56.961Z,2.40
2022-12-28T01:02:57.679Z,2.80
2022-12-28T01:03:58.344Z,2.50
2022-12-28T01:04:59.070Z,2.60
2022-12-28T01:05:59.770Z,2.60
2022-12-28T01:07:00.478Z,2.60
2022-12-28T01:08:01.180Z,3.20
2022-12-28T01:09:01.921Z,2.70
2022-12-28T01:10:02.669Z,2.70
2022-12-28T01:11:03.545Z,2.80
2022-12-28T01:12:04.252Z,3.00
2022-12-28T01:13:04.959Z,2.90
2022-12-28T01:14:05.663Z,2.80
2022-12-28T01:15:06.370Z,2.90
2022-12-28T01:16:07.126Z,3.00
2022-12-28T01:17:07.798Z,3.10
2022-12-28T01:18:08.525Z,2.90
2022-12-28T01:19:09.223Z,3.00
2022-12-28T01:20:09.942Z,3.10
2022-12-28T01:21:10.655Z,2.90
2022-12-28T01:22:11.352Z,3.00
2022-12-28T01:23:12.059Z,2.70
2022-12-28T01:24:12.766Z,2.90
2022-12-28T01:25:13.500Z,2.70
2022-12-28T01:26:14.197Z,2.70
2022-12-28T01:27:14.908Z,3.20
2022-12-28T01:28:15.621Z,3.00
2022-12-28T01:29:16.337Z,2.90
2022-12-28T01:30:17.036Z,2.60
2022-12-28T01:31:18.096Z,3.30
2022-12-28T01:32:18.255Z,2.80
2022-12-28T01:33:18.962Z,2.60
2022-12-28T01:34:19.667Z,2.60
2022-12-28T01:35:20.406Z,2.90
2022-12-28T01:36:21.052Z,2.70
2022-12-28T01:37:21.759Z,2.70
2022-12-28T01:38:22.468Z,2.60
2022-12-28T01:39:23.166Z,2.50
2022-12-28T01:40:23.903Z,2.70
2022-12-28T01:41:25.066Z,2.80
2022-12-28T01:42:25.251Z,2.80
2022-12-28T01:43:29.316Z,3.10
2022-12-28T01:44:26.676Z,3.10
2022-12-28T01:45:27.426Z,2.90
2022-12-28T01:46:28.093Z,3.50
2022-12-28T01:47:28.799Z,3.20
2022-12-28T01:48:29.515Z,3.70
2022-12-28T01:49:30.214Z,3.50
2022-12-28T01:50:30.972Z,3.50
2022-12-28T01:51:31.639Z,3.40
2022-12-28T01:52:32.336Z,3.70
2022-12-28T01:53:33.051Z,3.60
2022-12-28T01:54:33.758Z,3.90
2022-12-28T01:55:34.477Z,3.40
2022-12-28T01:56:35.179Z,3.30
2022-12-28T01:57:35.885Z,3.40
2022-12-28T01:58:36.600Z,3.80
2022-12-28T01:59:37.305Z,3.70
2022-12-28T02:00:38.011Z,3.10
2022-12-28T02:01:39.186Z,3.40
2022-12-28T02:02:39.575Z,3.60
2022-12-28T02:03:40.275Z,3.90
2022-12-28T02:04:40.975Z,3.30
2022-12-28T02:05:41.700Z,3.40
2022-12-28T02:06:42.407Z,3.50
2022-12-28T02:07:43.101Z,3.60
2022-12-28T02:08:43.814Z,3.50
2022-12-28T02:09:44.532Z,3.50
2022-12-28T02:10:46.292Z,3.30
2022-12-28T02:11:46.067Z,3.40
2022-12-28T02:12:46.834Z,3.50
2022-12-28T02:13:47.495Z,3.70
2022-12-28T02:14:48.212Z,3.70
2022-12-28T02:15:48.921Z,3.50
2022-12-28T02:16:49.706Z,3.20
2022-12-28T02:17:50.393Z,3.20
2022-12-28T02:18:51.097Z,3.50
2022-12-28T02:19:51.817Z,3.50
2022-12-28T02:20:52.530Z,3.10
2022-12-28T02:21:53.569Z,3.70
2022-12-28T02:22:53.777Z,3.50
2022-12-28T02:23:54.491Z,3.40
2022-12-28T02:25:12.348Z,3.40
2022-12-28T02:25:56.831Z,3.90
2022-12-28T02:26:56.583Z,3.80
2022-12-28T02:27:57.275Z,3.40
2022-12-28T02:28:57.979Z,3.60
2022-12-28T02:29:58.687Z,3.40
2022-12-28T02:30:59.435Z,3.10
2022-12-28T02:32:00.108Z,3.20
2022-12-28T02:33:00.819Z,4.00
2022-12-28T02:34:01.542Z,3.30
2022-12-28T02:35:02.231Z,3.80
2022-12-28T02:36:02.960Z,3.50
2022-12-28T02:37:03.612Z,3.40
2022-12-28T02:38:04.312Z,3.90
2022-12-28T02:39:05.014Z,4.10
2022-12-28T02:40:05.718Z,4.00
2022-12-28T02:41:06.447Z,3.70
2022-12-28T02:42:07.139Z,4.40
2022-12-28T02:43:07.837Z,3.70
2022-12-28T02:44:08.547Z,3.40
2022-12-28T02:45:09.257Z,3.90
2022-12-28T02:46:10.076Z,3.50
2022-12-28T02:47:10.757Z,3.60
2022-12-28T02:48:11.465Z,3.60
2022-12-28T02:49:12.168Z,3.80
2022-12-28T02:50:12.879Z,4.00
2022-12-28T02:51:13.608Z,3.60
2022-12-28T02:52:14.574Z,3.80
2022-12-28T02:53:15.284Z,3.50
2022-12-28T02:54:15.981Z,3.30
2022-12-28T02:55:16.703Z,3.30
2022-12-28T02:56:17.418Z,3.70
2022-12-28T02:57:18.550Z,3.60
2022-12-28T02:58:18.759Z,3.30
2022-12-28T02:59:19.471Z,3.80
2022-12-28T03:00:20.177Z,3.30
2022-12-28T03:01:20.981Z,3.60
2022-12-28T03:02:21.890Z,3.60
2022-12-28T03:03:22.698Z,3.80
2022-12-28T03:04:23.349Z,3.50
2022-12-28T03:05:24.054Z,3.20
2022-12-28T03:06:30.081Z,3.50
2022-12-28T03:07:26.552Z,3.40
2022-12-28T03:08:26.261Z,3.30
2022-12-28T03:09:26.991Z,3.60
2022-12-28T03:10:27.676Z,3.30
2022-12-28T03:11:28.401Z,3.00
2022-12-28T03:12:29.096Z,3.00
2022-12-28T03:13:29.846Z,3.40
2022-12-28T03:14:30.651Z,3.00
2022-12-28T03:15:31.369Z,3.40
2022-12-28T03:16:32.054Z,3.70
2022-12-28T03:17:32.769Z,3.10
2022-12-28T03:18:33.482Z,3.00
2022-12-28T03:19:34.185Z,3.30
2022-12-28T03:20:34.889Z,3.50
2022-12-28T03:21:35.679Z,3.70
2022-12-28T03:22:36.577Z,3.30
2022-12-28T03:23:37.283Z,3.00
2022-12-28T03:24:37.999Z,3.20
2022-12-28T03:25:38.698Z,3.20
2022-12-28T03:26:39.430Z,3.50
2022-12-28T03:27:40.129Z,3.20
2022-12-28T03:28:40.837Z,3.30
2022-12-28T03:29:41.547Z,3.30
2022-12-28T03:30:42.306Z,3.40
2022-12-28T03:31:42.960Z,3.20
2022-12-28T03:32:44.055Z,3.40
2022-12-28T03:33:44.265Z,3.10
2022-12-28T03:34:44.980Z,3.30
2022-12-28T03:35:45.681Z,3.50
2022-12-28T03:36:46.408Z,3.30
2022-12-28T03:37:47.081Z,3.60
2022-12-28T03:38:47.781Z,3.30
2022-12-28T03:39:48.486Z,3.40
2022-12-28T03:40:49.189Z,3.10
2022-12-28T03:41:49.923Z,3.40
2022-12-28T03:42:50.614Z,3.40
2022-12-28T03:43:51.320Z,3.30
2022-12-28T03:44:52.032Z,3.20
2022-12-28T03:45:52.785Z,3.80
2022-12-28T03:46:53.456Z,3.70
2022-12-28T03:47:54.171Z,3.60
2022-12-28T03:48:54.880Z,3.40
2022-12-28T03:49:55.592Z,3.20
2022-12-28T03:50:56.298Z,3.40
2022-12-28T03:51:57.026Z,3.70
2022-12-28T03:52:57.736Z,3.50
2022-12-28T03:53:58.437Z,3.30
2022-12-28T03:54:59.147Z,3.20
2022-12-28T03:55:59.850Z,3.60
2022-12-28T03:57:00.585Z,3.60
2022-12-28T03:58:01.269Z,3.30
2022-12-28T03:59:01.995Z,3.40
2022-12-28T04:00:02.683Z,3.30
2022-12-28T04:01:03.436Z,3.00
2022-12-28T04:02:04.222Z,3.40
2022-12-28T04:03:04.972Z,3.40
2022-12-28T04:04:05.656Z,3.60
2022-12-28T04:05:06.358Z,3.70
2022-12-28T04:06:07.065Z,3.80
2022-12-28T04:07:07.786Z,3.40
2022-12-28T04:08:08.447Z,3.40
2022-12-28T04:09:09.140Z,4.00
2022-12-28T04:10:09.845Z,3.60
2022-12-28T04:11:10.555Z,3.90
2022-12-28T04:12:11.283Z,3.70
2022-12-28T04:13:11.981Z,3.60
2022-12-28T04:14:12.689Z,3.60
2022-12-28T04:15:13.395Z,3.40
2022-12-28T04:16:14.196Z,3.60
2022-12-28T04:17:15.628Z,3.80
2022-12-28T04:18:15.492Z,3.90
2022-12-28T04:19:16.199Z,3.60
2022-12-28T04:20:16.911Z,3.40
2022-12-28T04:21:17.611Z,3.60
2022-12-28T04:22:18.340Z,3.60
2022-12-28T04:23:19.077Z,3.30
2022-12-28T04:24:19.791Z,3.20
2022-12-28T04:25:20.496Z,3.50
2022-12-28T04:26:21.203Z,3.50
2022-12-28T04:27:21.969Z,3.20
2022-12-28T04:28:22.647Z,3.10
2022-12-28T04:29:23.355Z,3.20
2022-12-28T04:30:24.062Z,3.40
2022-12-28T04:31:24.836Z,3.50
2022-12-28T04:32:25.501Z,3.60
2022-12-28T04:33:26.217Z,3.60
2022-12-28T04:34:26.939Z,3.80
2022-12-28T04:35:27.630Z,3.70
2022-12-28T04:36:28.341Z,3.60
2022-12-28T04:37:29.077Z,4.00
2022-12-28T04:38:29.764Z,3.30
2022-12-28T04:39:56.232Z,3.50
2022-12-28T04:40:32.074Z,3.50
2022-12-28T04:41:31.783Z,3.40
2022-12-28T04:42:32.523Z,3.40
2022-12-28T04:43:33.202Z,3.40
2022-12-28T04:44:33.908Z,3.50
2022-12-28T04:45:34.635Z,3.50
2022-12-28T04:46:35.411Z,3.30
2022-12-28T04:47:36.054Z,2.90
2022-12-28T04:48:37.066Z,3.10
2022-12-28T04:49:37.278Z,3.20
2022-12-28T04:50:37.998Z,3.10
2022-12-28T04:51:38.697Z,3.20
2022-12-28T04:52:39.417Z,3.50
2022-12-28T04:53:40.090Z,3.30
2022-12-28T04:54:40.820Z,3.30
2022-12-28T04:55:41.494Z,3.30
2022-12-28T04:56:42.200Z,3.70
2022-12-28T04:57:42.930Z,3.40
2022-12-28T04:58:44.063Z,3.20
2022-12-28T04:59:44.269Z,3.50
2022-12-28T05:00:45.001Z,3.90
2022-12-28T05:01:45.906Z,3.90
2022-12-28T05:02:46.765Z,3.70
2022-12-28T05:03:54.442Z,3.40
2022-12-28T05:04:49.079Z,3.30
2022-12-28T05:05:48.788Z,3.70
2022-12-28T05:06:49.507Z,3.30
2022-12-28T05:07:50.254Z,3.30
2022-12-28T05:08:51.083Z,3.70
2022-12-28T05:09:51.819Z,3.60
2022-12-28T05:10:52.517Z,3.40
2022-12-28T05:11:53.235Z,3.60
2022-12-28T05:12:53.956Z,3.30
2022-12-28T05:13:54.646Z,3.40
2022-12-28T05:14:55.358Z,3.80
2022-12-28T05:15:56.143Z,4.60
2022-12-28T05:16:56.832Z,5.70
2022-12-28T05:17:57.527Z,5.90
2022-12-28T05:18:58.238Z,5.40
2022-12-28T05:19:58.943Z,5.10
2022-12-28T05:20:59.650Z,5.60
2022-12-28T05:22:00.357Z,6.10
2022-12-28T05:23:01.076Z,6.20
2022-12-28T05:24:02.078Z,6.20
2022-12-28T05:25:02.281Z,6.70
2022-12-28T05:26:02.994Z,7.90
2022-12-28T05:27:03.693Z,8.50
2022-12-28T05:28:04.426Z,8.00
2022-12-28T05:29:05.128Z,7.70
2022-12-28T05:30:05.835Z,7.00
2022-12-28T05:31:06.581Z,5.70
2022-12-28T05:32:07.253Z,7.90
2022-12-28T05:33:07.953Z,7.20
2022-12-28T05:34:08.666Z,7.20
2022-12-28T05:35:09.383Z,6.80
2022-12-28T05:36:10.100Z,6.40
2022-12-28T05:37:11.416Z,7.20
2022-12-28T05:38:11.566Z,7.20
2022-12-28T05:39:12.251Z,7.40
2022-12-28T05:40:12.956Z,7.20
2022-12-28T05:41:13.671Z,7.90
2022-12-28T05:42:14.373Z,8.60
2022-12-28T05:43:15.101Z,7.50
2022-12-28T05:44:15.803Z,6.90
2022-12-28T05:45:16.498Z,6.60
2022-12-28T05:46:17.322Z,8.60
2022-12-28T05:47:18.036Z,7.40
2022-12-28T05:48:18.758Z,7.70
2022-12-28T05:49:19.568Z,7.10
2022-12-28T05:50:20.276Z,6.40
2022-12-28T05:51:20.985Z,5.90
2022-12-28T05:52:21.691Z,7.10
2022-12-28T05:53:22.412Z,6.70
2022-12-28T05:54:23.093Z,9.00
2022-12-28T05:55:23.802Z,7.90
2022-12-28T05:56:24.506Z,7.70
2022-12-28T05:57:25.216Z,7.50
2022-12-28T05:58:25.974Z,7.20
2022-12-28T05:59:26.662Z,6.80
2022-12-28T06:00:27.374Z,7.40
2022-12-28T06:01:28.116Z,7.10
2022-12-28T06:02:28.866Z,6.80
2022-12-28T06:03:29.736Z,6.40
2022-12-28T06:04:30.564Z,5.90
2022-12-28T06:05:31.273Z,5.80
2022-12-28T06:06:31.982Z,5.70
2022-12-28T06:07:32.697Z,6.00
2022-12-28T06:08:33.416Z,7.30
2022-12-28T06:09:34.118Z,7.00
2022-12-28T06:10:34.824Z,6.50
2022-12-28T06:11:35.596Z,6.50
2022-12-28T06:12:36.249Z,7.00
2022-12-28T06:13:36.966Z,6.50
2022-12-28T06:14:38.070Z,6.00
2022-12-28T06:15:38.272Z,7.10
2022-12-28T06:16:39.057Z,7.60
2022-12-28T06:17:39.713Z,7.90
2022-12-28T06:18:40.425Z,7.40
2022-12-28T06:19:41.138Z,8.40
2022-12-28T06:20:41.840Z,8.10
2022-12-28T06:21:42.548Z,8.70
2022-12-28T06:22:43.259Z,8.20
2022-12-28T06:23:44.188Z,8.80
2022-12-28T06:24:45.086Z,6.60
2022-12-28T06:25:45.793Z,7.50
2022-12-28T06:26:46.500Z,6.80
2022-12-28T06:27:47.219Z,5.80
2022-12-28T06:28:47.947Z,6.20
2022-12-28T06:29:48.642Z,6.60
2022-12-28T06:30:52.869Z,6.30
2022-12-28T06:31:50.246Z,6.60
2022-12-28T06:32:50.916Z,6.70
2022-12-28T06:33:51.626Z,6.10
2022-12-28T06:34:52.572Z,6.20
2022-12-28T06:35:53.276Z,5.90
2022-12-28T06:36:53.993Z,7.10
2022-12-28T06:37:54.696Z,6.50
2022-12-28T06:38:55.506Z,6.70
2022-12-28T06:39:56.142Z,6.50
2022-12-28T06:41:14.218Z,6.40
2022-12-28T06:41:58.455Z,6.30
2022-12-28T06:42:58.199Z,6.40
2022-12-28T06:43:58.878Z,6.10
2022-12-28T06:44:59.577Z,6.90
2022-12-28T06:46:00.334Z,6.90
2022-12-28T06:47:01.004Z,6.30
2022-12-28T06:48:01.697Z,6.90
2022-12-28T06:49:02.401Z,6.90
2022-12-28T06:50:03.114Z,6.90
2022-12-28T06:51:03.826Z,7.40
2022-12-28T06:52:04.531Z,7.80
2022-12-28T06:53:05.251Z,7.60
2022-12-28T06:54:05.967Z,7.10
2022-12-28T06:55:07.087Z,6.70
2022-12-28T06:56:07.294Z,6.70
2022-12-28T06:57:08.005Z,6.90
2022-12-28T06:58:08.700Z,7.30
2022-12-28T06:59:09.440Z,6.30
2022-12-28T07:00:10.567Z,7.20
2022-12-28T07:01:10.948Z,7.80
2022-12-28T07:02:11.935Z,7.40
2022-12-28T07:03:12.713Z,7.40
2022-12-28T07:04:13.396Z,8.80
2022-12-28T07:05:14.566Z,7.60
2022-12-28T07:06:14.772Z,6.90
2022-12-28T07:07:15.484Z,7.50
2022-12-28T07:08:16.180Z,8.00
2022-12-28T07:09:16.982Z,7.90
2022-12-28T07:10:17.616Z,8.00
2022-12-28T07:11:18.327Z,7.80
2022-12-28T07:12:19.036Z,7.80
2022-12-28T07:13:24.454Z,7.80
2022-12-28T07:14:21.369Z,8.10
2022-12-28T07:15:21.059Z,8.20
2022-12-28T07:16:21.798Z,8.30
2022-12-28T07:17:22.471Z,7.70
2022-12-28T07:18:23.178Z,7.60
2022-12-28T07:19:23.885Z,8.10
2022-12-28T07:20:24.600Z,7.70
2022-12-28T07:21:25.334Z,7.50
2022-12-28T07:22:26.013Z,7.70
2022-12-28T07:23:26.719Z,6.70
2022-12-28T07:24:27.454Z,7.60
2022-12-28T07:25:28.593Z,7.50
2022-12-28T07:26:28.797Z,7.80
2022-12-28T07:27:29.503Z,7.50
2022-12-28T07:28:30.205Z,7.70
2022-12-28T07:29:30.930Z,8.00
2022-12-28T07:30:32.194Z,7.50
2022-12-28T07:31:34.700Z,8.10
2022-12-28T07:32:33.159Z,7.40
2022-12-28T07:33:33.863Z,7.20
2022-12-28T07:34:34.566Z,8.40
2022-12-28T07:35:35.281Z,7.50
2022-12-28T07:36:35.994Z,7.00
2022-12-28T07:37:36.687Z,7.30
2022-12-28T07:38:37.389Z,7.80
2022-12-28T07:39:38.188Z,7.70
2022-12-28T07:40:38.824Z,7.40
2022-12-28T07:41:39.546Z,7.60
2022-12-28T07:42:40.232Z,8.30
2022-12-28T07:43:40.932Z,7.80
2022-12-28T07:44:45.467Z,7.00
2022-12-28T07:45:43.289Z,8.00
2022-12-28T07:46:42.951Z,8.50
2022-12-28T07:47:43.662Z,7.70
2022-12-28T07:48:44.366Z,7.30
2022-12-28T07:49:45.066Z,7.80
2022-12-28T07:50:46.069Z,7.80
2022-12-28T07:51:46.276Z,7.80
2022-12-28T07:52:46.979Z,8.00
2022-12-28T07:53:47.712Z,7.60
2022-12-28T07:54:48.407Z,7.60
2022-12-28T07:55:49.087Z,7.60
2022-12-28T07:56:49.791Z,6.80
2022-12-28T07:57:50.502Z,7.90
2022-12-28T07:58:51.202Z,8.90
2022-12-28T07:59:51.936Z,7.50
2022-12-28T08:00:53.072Z,8.00
2022-12-28T08:01:53.458Z,7.70
2022-12-28T08:02:54.176Z,7.80
2022-12-28T08:03:54.963Z,7.50
2022-12-28T08:04:55.625Z,6.70
2022-12-28T08:05:56.340Z,6.60
2022-12-28T08:06:57.049Z,7.30
2022-12-28T08:08:03.330Z,7.70
2022-12-28T08:08:59.347Z,7.30
2022-12-28T08:09:59.080Z,7.50
2022-12-28T08:10:59.737Z,7.70
2022-12-28T08:12:00.447Z,7.90
2022-12-28T08:13:01.161Z,8.10
2022-12-28T08:14:01.864Z,8.20
2022-12-28T08:15:02.583Z,7.80
2022-12-28T08:16:03.367Z,8.10
2022-12-28T08:17:04.031Z,7.20
2022-12-28T08:18:04.751Z,8.50
2022-12-28T08:19:05.445Z,8.00
2022-12-28T08:20:06.343Z,8.80
2022-12-28T08:21:07.083Z,7.00
2022-12-28T08:22:07.789Z,8.10
2022-12-28T08:23:08.487Z,7.90
2022-12-28T08:24:09.189Z,7.80
2022-12-28T08:25:09.917Z,8.20
2022-12-28T08:26:11.096Z,9.20
2022-12-28T08:27:11.301Z,8.80
2022-12-28T08:28:11.919Z,8.80
2022-12-28T08:29:12.466Z,8.80
2022-12-28T08:30:13.192Z,8.50
2022-12-28T08:31:13.939Z,8.70
2022-12-28T08:32:14.647Z,9.30
2022-12-28T08:33:15.335Z,9.30
2022-12-28T08:34:16.043Z,8.60
2022-12-28T08:35:16.749Z,9.90
2022-12-28T08:36:17.481Z,8.50
2022-12-28T08:37:18.178Z,9.60
2022-12-28T08:38:19.563Z,10.40
2022-12-28T08:39:19.779Z,9.80
2022-12-28T08:40:20.498Z,9.60
2022-12-28T08:41:21.571Z,9.50
2022-12-28T08:42:21.783Z,10.00
2022-12-28T08:43:22.495Z,8.90
2022-12-28T08:44:23.207Z,10.10
2022-12-28T08:45:23.921Z,10.40
2022-12-28T08:46:24.801Z,9.80
2022-12-28T08:47:25.533Z,10.60
2022-12-28T08:48:26.277Z,10.60
2022-12-28T08:49:26.950Z,9.90
2022-12-28T08:50:31.588Z,10.20
2022-12-28T08:51:28.573Z,10.90
2022-12-28T08:52:29.283Z,11.00
2022-12-28T08:53:29.989Z,10.30
2022-12-28T08:54:30.699Z,9.90
2022-12-28T08:55:31.437Z,10.60
2022-12-28T08:56:32.616Z,9.80
2022-12-28T08:57:32.801Z,10.10
2022-12-28T08:58:33.507Z,9.90
2022-12-28T08:59:34.218Z,9.70
2022-12-28T09:00:34.946Z,10.40
2022-12-28T09:01:42.980Z,10.80
2022-12-28T09:02:37.384Z,11.00
2022-12-28T09:03:37.158Z,11.60
2022-12-28T09:04:37.828Z,10.40
2022-12-28T09:05:39.809Z,11.30
2022-12-28T09:06:39.125Z,10.90
2022-12-28T09:07:39.828Z,11.00
2022-12-28T09:08:42.288Z,11.90
2022-12-28T09:09:41.150Z,12.00
2022-12-28T09:10:41.842Z,11.20
2022-12-28T09:11:42.490Z,11.60
2022-12-28T09:12:43.197Z,11.20
2022-12-28T09:13:43.901Z,11.30
2022-12-28T09:14:44.615Z,9.90
2022-12-28T09:15:45.420Z,10.30
2022-12-28T09:16:46.086Z,9.60
2022-12-28T09:17:46.789Z,10.70
2022-12-28T09:18:47.491Z,10.30
2022-12-28T09:19:48.198Z,9.90
2022-12-28T09:20:48.910Z,10.70
2022-12-28T09:21:50.084Z,10.20
2022-12-28T09:22:50.301Z,10.00
2022-12-28T09:23:51.014Z,10.40
2022-12-28T09:24:51.696Z,10.20
2022-12-28T09:25:52.424Z,9.90
2022-12-28T09:26:53.314Z,9.00
2022-12-28T09:27:59.155Z,9.10
2022-12-28T09:28:55.565Z,9.10
2022-12-28T09:29:55.279Z,8.50
2022-12-28T09:30:56.047Z,9.70
2022-12-28T09:31:56.717Z,9.70
2022-12-28T09:32:57.421Z,9.20
2022-12-28T09:34:34.506Z,8.20
2022-12-28T09:34:59.727Z,8.20
2022-12-28T09:35:59.430Z,7.60
2022-12-28T09:37:00.155Z,8.60
2022-12-28T09:38:00.861Z,7.80
2022-12-28T09:39:01.611Z,8.20
2022-12-28T09:40:02.286Z,8.60
2022-12-28T09:41:02.993Z,8.20
2022-12-28T09:42:03.657Z,8.10
2022-12-28T09:43:04.363Z,8.90
2022-12-28T09:44:05.067Z,8.20
2022-12-28T09:45:05.785Z,8.60
2022-12-28T09:46:06.512Z,8.40
2022-12-28T09:47:07.576Z,9.10
2022-12-28T09:48:07.797Z,7.50
2022-12-28T09:49:08.491Z,7.10
2022-12-28T09:50:09.191Z,7.90
2022-12-28T09:51:09.898Z,7.70
2022-12-28T09:52:11.080Z,8.20
2022-12-28T09:53:11.297Z,8.40
2022-12-28T09:54:11.997Z,7.80
2022-12-28T09:55:12.720Z,8.00
2022-12-28T09:56:13.430Z,8.00
2022-12-28T09:57:14.131Z,8.70
2022-12-28T09:58:14.849Z,8.00
2022-12-28T09:59:15.546Z,7.70
2022-12-28T10:00:16.253Z,7.60
2022-12-28T10:01:17.373Z,7.90
2022-12-28T10:02:18.628Z,7.10
2022-12-28T10:03:18.833Z,7.60
2022-12-28T10:04:19.588Z,8.50
2022-12-28T10:05:20.296Z,7.10
2022-12-28T10:06:20.999Z,7.80
2022-12-28T10:07:21.713Z,6.70
2022-12-28T10:08:22.419Z,6.80
2022-12-28T10:09:23.129Z,6.80
2022-12-28T10:10:23.859Z,7.40
2022-12-28T10:11:24.575Z,8.10
2022-12-28T10:12:25.267Z,7.70
2022-12-28T10:14:27.580Z,6.10
2022-12-28T10:15:27.293Z,6.70
2022-12-28T10:16:28.100Z,6.00
2022-12-28T10:17:29.079Z,6.40
2022-12-28T10:18:30.697Z,5.90
2022-12-28T10:19:29.996Z,6.30
2022-12-28T10:20:30.709Z,6.50
2022-12-28T10:21:32.992Z,6.60
2022-12-28T10:22:32.321Z,6.20
2022-12-28T10:23:33.031Z,6.60
2022-12-28T10:24:33.746Z,6.40
2022-12-28T10:25:34.458Z,6.40
2022-12-28T10:26:35.190Z,6.10
2022-12-28T10:27:35.882Z,6.30
2022-12-28T10:28:36.596Z,5.60
2022-12-28T10:29:37.293Z,5.40
2022-12-28T10:30:37.996Z,5.00
2022-12-28T10:31:38.812Z,6.50
2022-12-28T10:32:39.599Z,6.50
2022-12-28T10:33:40.307Z,5.60
2022-12-28T10:34:41.015Z,5.60
2022-12-28T10:35:41.727Z,6.10
2022-12-28T10:36:42.426Z,5.30
2022-12-28T10:37:43.588Z,5.10
2022-12-28T10:38:43.798Z,5.70
2022-12-28T10:39:44.503Z,5.30
2022-12-28T10:40:45.215Z,5.50
2022-12-28T10:41:45.945Z,6.10
2022-12-28T10:42:46.617Z,5.20
2022-12-28T10:43:54.203Z,5.70
2022-12-28T10:44:48.909Z,5.20
2022-12-28T10:45:48.618Z,4.70
2022-12-28T10:46:49.368Z,4.90
2022-12-28T10:47:50.058Z,5.40
2022-12-28T10:48:50.750Z,5.30
2022-12-28T10:50:10.417Z,4.80
2022-12-28T10:50:53.065Z,4.60
2022-12-28T10:51:52.774Z,4.40
2022-12-28T10:52:53.591Z,4.80
2022-12-28T10:53:54.295Z,5.20
2022-12-28T10:55:08.043Z,4.50
2022-12-28T10:55:56.603Z,4.10
2022-12-28T10:56:56.328Z,5.40
2022-12-28T10:58:28.488Z,4.60
2022-12-28T10:58:58.686Z,4.20
2022-12-28T10:59:58.392Z,4.20
2022-12-28T11:00:59.191Z,4.50
2022-12-28T11:02:00.056Z,4.10
2022-12-28T11:03:00.991Z,4.10
2022-12-28T11:04:01.683Z,4.00
2022-12-28T11:05:02.387Z,4.00
2022-12-28T11:06:03.080Z,4.20
2022-12-28T11:07:03.785Z,3.80
2022-12-28T11:08:04.504Z,3.60
2022-12-28T11:09:05.209Z,3.60
2022-12-28T11:10:05.906Z,3.50
2022-12-28T11:11:06.613Z,3.90
2022-12-28T11:12:07.340Z,3.80
2022-12-28T11:13:08.005Z,3.10
2022-12-28T11:14:08.711Z,3.40
2022-12-28T11:15:09.419Z,3.20
2022-12-28T11:16:10.154Z,3.70
2022-12-28T11:17:10.848Z,3.80
2022-12-28T11:18:11.552Z,3.90
2022-12-28T11:19:12.261Z,3.90
2022-12-28T11:20:12.975Z,3.60
2022-12-28T11:21:13.700Z,3.50
2022-12-28T11:22:14.386Z,3.50
2022-12-28T11:23:15.585Z,3.50
2022-12-28T11:24:15.800Z,3.00
2022-12-28T11:25:16.507Z,3.70
2022-12-28T11:26:17.215Z,3.60
2022-12-28T11:27:17.942Z,3.00
2022-12-28T11:28:18.633Z,3.30
2022-12-28T11:29:19.552Z,3.60
2022-12-28T11:30:20.309Z,3.30
2022-12-28T11:31:21.213Z,3.10
2022-12-28T11:32:21.907Z,3.10
2022-12-28T11:33:22.620Z,3.60
2022-12-28T11:34:23.328Z,3.10
2022-12-28T11:35:24.046Z,3.60
2022-12-28T11:36:24.746Z,3.20
2022-12-28T11:37:25.453Z,3.20
2022-12-28T11:38:26.590Z,2.90
2022-12-28T11:39:26.842Z,2.90
2022-12-28T11:40:27.502Z,3.10
2022-12-28T11:41:33.665Z,2.60
2022-12-28T11:42:39.165Z,3.00
2022-12-28T11:43:30.606Z,3.50
2022-12-28T11:44:30.317Z,3.40
2022-12-28T11:45:31.347Z,3.30
2022-12-28T11:46:32.029Z,3.60
2022-12-28T11:47:32.834Z,3.50
2022-12-28T11:48:33.589Z,3.10
2022-12-28T11:49:34.296Z,2.80
2022-12-28T11:50:35.002Z,3.40
2022-12-28T11:51:35.709Z,3.60
2022-12-28T11:52:36.417Z,3.50
2022-12-28T11:53:37.143Z,3.60
2022-12-28T11:54:37.847Z,3.60
2022-12-28T11:55:38.560Z,3.90
2022-12-28T11:56:39.263Z,3.30
2022-12-28T11:57:39.995Z,3.80
2022-12-28T11:58:40.693Z,3.30
2022-12-28T11:59:41.410Z,3.20
2022-12-28T12:00:42.123Z,3.50
2022-12-28T12:01:42.944Z,3.50
2022-12-28T12:02:43.668Z,3.70
2022-12-28T12:03:44.382Z,3.80
2022-12-28T12:04:45.033Z,3.90
2022-12-28T12:05:45.741Z,4.10
2022-12-28T12:06:46.455Z,3.60
2022-12-28T12:07:47.172Z,3.80
2022-12-28T12:08:48.092Z,3.20
2022-12-28T12:09:48.799Z,3.70
2022-12-28T12:10:49.519Z,3.30
2022-12-28T12:11:50.227Z,3.60
2022-12-28T12:12:50.964Z,3.50
2022-12-28T12:13:51.642Z,3.10
2022-12-28T12:14:52.336Z,3.10
2022-12-28T12:15:53.051Z,3.40
2022-12-28T12:16:53.783Z,3.70
2022-12-28T12:17:54.483Z,4.20
2022-12-28T12:18:55.594Z,4.40
2022-12-28T12:19:55.804Z,3.90
2022-12-28T12:20:56.511Z,4.60
2022-12-28T12:21:57.213Z,4.30
2022-12-28T12:22:57.929Z,4.10
2022-12-28T12:23:59.088Z,4.30
2022-12-28T12:24:59.298Z,4.50
2022-12-28T12:26:00.005Z,4.10
2022-12-28T12:27:00.711Z,4.00
2022-12-28T12:28:01.438Z,4.30
2022-12-28T12:29:02.158Z,3.70
2022-12-28T12:30:02.854Z,3.70
2022-12-28T12:31:03.643Z,3.80
2022-12-28T12:32:04.323Z,4.40
2022-12-28T12:33:05.042Z,4.30
2022-12-28T12:34:06.102Z,4.20
2022-12-28T12:35:06.310Z,4.60
2022-12-28T12:36:07.019Z,4.30
2022-12-28T12:37:07.715Z,3.90
2022-12-28T12:38:08.422Z,4.80
2022-12-28T12:39:09.592Z,4.30
2022-12-28T12:40:09.798Z,4.90
2022-12-28T12:41:10.508Z,4.30
2022-12-28T12:42:11.246Z,4.00
2022-12-28T12:43:11.950Z,4.70
2022-12-28T12:44:12.628Z,4.30
2022-12-28T12:45:13.321Z,4.60
2022-12-28T12:46:14.119Z,4.70
2022-12-28T12:47:15.049Z,5.30
2022-12-28T12:48:15.776Z,4.50
2022-12-28T12:49:16.471Z,4.70
2022-12-28T12:50:17.186Z,4.70
2022-12-28T12:51:17.888Z,4.30
2022-12-28T12:52:18.593Z,4.00
2022-12-28T12:53:19.310Z,4.10
2022-12-28T12:54:20.026Z,4.30
2022-12-28T12:55:20.730Z,4.30
2022-12-28T12:56:21.447Z,4.70
2022-12-28T12:57:22.147Z,5.00
2022-12-28T12:58:22.886Z,4.80
2022-12-28T12:59:23.602Z,5.50
2022-12-28T13:00:24.328Z,5.10
2022-12-28T13:01:25.114Z,4.20
2022-12-28T13:02:25.913Z,5.00
2022-12-28T13:03:26.733Z,4.30
2022-12-28T13:04:27.598Z,5.10
2022-12-28T13:05:28.306Z,4.30
2022-12-28T13:06:29.016Z,4.50
2022-12-28T13:07:29.722Z,4.90
2022-12-28T13:08:30.431Z,4.40
2022-12-28T13:09:31.154Z,4.50
2022-12-28T13:10:31.854Z,4.50
2022-12-28T13:11:32.565Z,4.30
2022-12-28T13:12:33.268Z,4.50
2022-12-28T13:13:34.004Z,4.30
2022-12-28T13:14:34.668Z,4.80
2022-12-28T13:15:35.447Z,4.80
2022-12-28T13:16:36.105Z,4.80
2022-12-28T13:17:36.812Z,5.60
2022-12-28T13:18:45.669Z,5.60
2022-12-28T13:19:39.128Z,6.40
2022-12-28T13:20:38.834Z,6.30
2022-12-28T13:21:39.551Z,5.50
2022-12-28T13:22:40.258Z,5.20
2022-12-28T13:23:40.965Z,4.10
2022-12-28T13:24:42.096Z,5.20
2022-12-28T13:25:42.304Z,5.30
2022-12-28T13:26:43.023Z,5.20
2022-12-28T13:27:43.722Z,5.80